Time;durP1;ratioP1;P1;durP2;ratioP2;P2;SDS_P1;SDS_P2;PMS_P1;PMS_P2;Temp;Humidity;BMP_temperature;BMP_pressure;BME280_temperature;BME280_humidity;BME280_pressure;Samples;Min_cycle;Max_cycle;Signal;HPM_P1;HPM_P2
2023/02/04 00:01:33;;;;;;;27.83;5.97;;;;;;;;;;5115692;28;20551;-64
2023/02/04 00:04:01;;;;;;;31.55;5.38;;;;;;;;;;5115046;28;20192;-64
2023/02/04 00:06:28;;;;;;;31.35;7.18;;;;;;;;;;5115260;28;20193;-64
2023/02/04 00:08:55;;;;;;;29.33;6.72;;;;;;;;;;5114526;28;20675;-64
2023/02/04 00:11:23;;;;;;;23.60;5.85;;;;;;;;;;5101038;28;20650;-65
2023/02/04 00:13:51;;;;;;;24.25;6.95;;;;;;;;;;5096023;28;20197;-64
2023/02/04 00:16:18;;;;;;;27.13;6.95;;;;;;;;;;5093406;28;20285;-64
2023/02/04 00:18:45;;;;;;;27.92;6.45;;;;;;;;;;5093301;28;20223;-64
2023/02/04 00:21:12;;;;;;;34.70;6.45;;;;;;;;;;5093588;28;20193;-64
2023/02/04 00:23:39;;;;;;;36.10;7.57;;;;;;;;;;5094295;28;20196;-64
2023/02/04 00:26:07;;;;;;;28.92;5.68;;;;;;;;;;5094120;28;20196;-64
2023/02/04 00:28:35;;;;;;;44.28;7.22;;;;;;;;;;5094354;28;20204;-64
2023/02/04 00:31:02;;;;;;;26.35;5.72;;;;;;;;;;5094145;28;20198;-64
2023/02/04 00:33:30;;;;;;;34.15;6.53;;;;;;;;;;5094297;28;20194;-64
2023/02/04 00:35:57;;;;;;;23.58;4.95;;;;;;;;;;5094264;28;20203;-64
2023/02/04 00:38:24;;;;;;;22.02;5.65;;;;;;;;;;5093395;28;20228;-64
2023/02/04 00:40:51;;;;;;;31.65;7.38;;;;;;;;;;5093457;28;20208;-64
2023/02/04 00:43:18;;;;;;;26.58;5.97;;;;;;;;;;5094073;28;20203;-64
2023/02/04 00:45:47;;;;;;;21.52;5.28;;;;;;;;;;5094170;28;20228;-64
2023/02/04 00:48:14;;;;;;;35.35;6.38;;;;;;;;;;5093934;28;20192;-64
2023/02/04 00:50:41;;;;;;;26.52;6.47;;;;;;;;;;5093855;28;20199;-64
2023/02/04 00:53:08;;;;;;;31.73;5.88;;;;;;;;;;5093963;28;20660;-64
2023/02/04 00:55:36;;;;;;;31.77;6.13;;;;;;;;;;5093812;28;20315;-64
2023/02/04 00:58:03;;;;;;;29.73;6.93;;;;;;;;;;5111155;28;20238;-64
2023/02/04 01:00:30;;;;;;;24.70;6.38;;;;;;;;;;5114090;28;20223;-64
2023/02/04 01:02:58;;;;;;;20.65;6.85;;;;;;;;;;5116560;27;20193;-64
2023/02/04 01:05:26;;;;;;;26.00;5.97;;;;;;;;;;5114269;28;20196;-64
2023/02/04 01:07:53;;;;;;;45.45;8.15;;;;;;;;;;5114050;28;20216;-64
2023/02/04 01:10:20;;;;;;;30.60;5.72;;;;;;;;;;5117322;27;20211;-64
2023/02/04 01:12:47;;;;;;;22.52;6.70;;;;;;;;;;5114347;28;20199;-64
2023/02/04 01:15:14;;;;;;;38.88;8.07;;;;;;;;;;5113907;28;20188;-64
2023/02/04 01:17:41;;;;;;;31.58;8.10;;;;;;;;;;5113759;28;20196;-64
2023/02/04 01:20:11;;;;;;;31.55;5.85;;;;;;;;;;5113257;28;20215;-65
2023/02/04 01:22:38;;;;;;;28.70;7.82;;;;;;;;;;5113796;28;20538;-64
2023/02/04 01:25:06;;;;;;;30.35;6.72;;;;;;;;;;5114123;28;20193;-64
2023/02/04 01:27:33;;;;;;;29.15;6.30;;;;;;;;;;5114151;28;20196;-64
2023/02/04 01:30:00;;;;;;;24.20;6.25;;;;;;;;;;5113679;28;20211;-65
2023/02/04 01:32:27;;;;;;;28.23;6.65;;;;;;;;;;5113504;28;20196;-64
2023/02/04 01:34:54;;;;;;;15.77;5.15;;;;;;;;;;5113508;28;20199;-64
2023/02/04 01:37:23;;;;;;;31.30;7.35;;;;;;;;;;5113379;28;20206;-64
2023/02/04 01:39:50;;;;;;;29.13;5.30;;;;;;;;;;5113687;28;20217;-64
2023/02/04 01:42:17;;;;;;;28.30;6.22;;;;;;;;;;5113718;28;20283;-64
2023/02/04 01:44:44;;;;;;;43.42;7.40;;;;;;;;;;5113660;28;20207;-64
2023/02/04 01:47:12;;;;;;;40.20;6.40;;;;;;;;;;5113638;28;20193;-64
2023/02/04 01:49:39;;;;;;;23.15;4.65;;;;;;;;;;5113963;28;20200;-64
2023/02/04 01:52:06;;;;;;;27.52;6.60;;;;;;;;;;5113264;28;20192;-63
2023/02/04 01:54:35;;;;;;;31.73;5.18;;;;;;;;;;5113596;28;20198;-64
2023/02/04 01:57:02;;;;;;;28.55;6.15;;;;;;;;;;5113308;28;20225;-64
2023/02/04 01:59:29;;;;;;;29.83;6.10;;;;;;;;;;5113553;28;20223;-64
2023/02/04 02:01:57;;;;;;;48.75;5.90;;;;;;;;;;5120967;28;20190;-64
2023/02/04 02:04:28;;;;;;;27.67;6.47;;;;;;;;;;5134028;28;20196;-64
2023/02/04 02:06:57;;;;;;;26.98;4.90;;;;;;;;;;5134282;28;20539;-64
2023/02/04 02:09:24;;;;;;;27.45;7.32;;;;;;;;;;5124903;28;20197;-64
2023/02/04 02:11:53;;;;;;;17.50;6.10;;;;;;;;;;5113369;28;20199;-64
2023/02/04 02:14:21;;;;;;;31.48;6.75;;;;;;;;;;5114427;28;20203;-64
2023/02/04 02:16:48;;;;;;;32.45;6.30;;;;;;;;;;5116912;28;20229;-64
2023/02/04 02:19:18;;;;;;;35.25;7.15;;;;;;;;;;5116773;28;20203;-64
2023/02/04 02:21:47;;;;;;;18.65;5.20;;;;;;;;;;5117120;28;20687;-64
2023/02/04 02:24:27;;;;;;;27.38;6.53;;;;;;;;;;5117196;28;20653;-64
2023/02/04 02:26:55;;;;;;;23.55;6.65;;;;;;;;;;5116742;28;20195;-64
2023/02/04 02:29:22;;;;;;;19.20;5.05;;;;;;;;;;5116721;28;20199;-64
2023/02/04 02:31:50;;;;;;;39.53;6.60;;;;;;;;;;5116519;28;20196;-64
2023/02/04 02:34:17;;;;;;;31.20;4.50;;;;;;;;;;5116881;28;20196;-64
2023/02/04 02:36:45;;;;;;;26.15;6.88;;;;;;;;;;5117193;28;20196;-64
2023/02/04 02:39:12;;;;;;;36.40;5.70;;;;;;;;;;5117092;28;20196;-64
2023/02/04 02:41:41;;;;;;;32.47;5.70;;;;;;;;;;5116644;28;20204;-64
2023/02/04 02:44:08;;;;;;;31.60;6.47;;;;;;;;;;5117011;28;20196;-64
2023/02/04 02:46:35;;;;;;;22.40;5.25;;;;;;;;;;5116346;28;20287;-64
2023/02/04 02:49:02;;;;;;;35.30;6.75;;;;;;;;;;5116423;28;20663;-64
2023/02/04 02:51:30;;;;;;;32.08;6.65;;;;;;;;;;5116654;28;20284;-64
2023/02/04 02:53:57;;;;;;;31.70;5.78;;;;;;;;;;5116584;28;20200;-64
2023/02/04 02:56:24;;;;;;;51.38;8.75;;;;;;;;;;5115920;28;20228;-64
2023/02/04 02:58:53;;;;;;;43.15;7.18;;;;;;;;;;5116460;28;20183;-64
2023/02/04 03:01:21;;;;;;;29.95;7.65;;;;;;;;;;5118548;27;20215;-64
2023/02/04 03:03:49;;;;;;;30.30;6.50;;;;;;;;;;5116958;27;20200;-64
2023/02/04 03:06:19;;;;;;;40.97;6.53;;;;;;;;;;5116230;28;20196;-64
2023/02/04 03:08:47;;;;;;;37.53;6.38;;;;;;;;;;5121989;27;20207;-64
2023/02/04 03:11:14;;;;;;;28.67;5.88;;;;;;;;;;5137084;27;20199;-64
2023/02/04 03:13:42;;;;;;;28.38;5.80;;;;;;;;;;5136450;27;20567;-64
2023/02/04 03:24:37;;;;;;;19.70;5.05;;;;;;;;;;5215493;22;20229;-66
2023/02/04 03:27:04;;;;;;;24.40;5.35;;;;;;;;;;5044673;28;20237;-67
2023/02/04 03:29:32;;;;;;;29.38;5.72;;;;;;;;;;5053892;28;20194;-63
2023/02/04 03:31:59;;;;;;;34.08;7.00;;;;;;;;;;5054335;28;20694;-63
2023/02/04 03:34:26;;;;;;;18.55;5.45;;;;;;;;;;5054567;28;20289;-65
2023/02/04 03:36:54;;;;;;;39.22;6.45;;;;;;;;;;5054664;28;20198;-66
2023/02/04 03:39:21;;;;;;;24.45;5.43;;;;;;;;;;5054643;28;20202;-64
2023/02/04 03:41:49;;;;;;;28.75;6.45;;;;;;;;;;5054187;28;20226;-65
2023/02/04 03:44:17;;;;;;;22.30;4.88;;;;;;;;;;5054457;28;20225;-63
2023/02/04 03:46:44;;;;;;;30.85;7.03;;;;;;;;;;5054406;28;20691;-67
2023/02/04 03:49:11;;;;;;;25.30;5.55;;;;;;;;;;5054358;28;20670;-66
2023/02/04 03:51:39;;;;;;;31.42;6.25;;;;;;;;;;5054829;28;20198;-64
2023/02/04 03:54:06;;;;;;;24.05;6.20;;;;;;;;;;5055228;28;20227;-65
2023/02/04 03:56:33;;;;;;;34.92;6.10;;;;;;;;;;5046149;28;20202;-65
2023/02/04 03:59:01;;;;;;;34.08;5.97;;;;;;;;;;5054387;28;20206;-64
2023/02/04 04:01:29;;;;;;;35.60;7.38;;;;;;;;;;5054518;28;20577;-67
2023/02/04 04:03:56;;;;;;;23.30;5.43;;;;;;;;;;5054510;28;20674;-64
2023/02/04 04:06:23;;;;;;;32.28;6.85;;;;;;;;;;5054596;28;20194;-65
2023/02/04 04:08:50;;;;;;;21.85;4.93;;;;;;;;;;5053245;28;20193;-65
2023/02/04 04:11:18;;;;;;;27.17;6.72;;;;;;;;;;5054508;28;20194;-63
2023/02/04 04:13:45;;;;;;;31.13;6.78;;;;;;;;;;5054767;28;20201;-66
2023/02/04 04:16:13;;;;;;;29.55;5.72;;;;;;;;;;5054424;28;20225;-64
2023/02/04 04:18:41;;;;;;;28.15;5.18;;;;;;;;;;5054220;28;20205;-64
2023/02/04 04:21:08;;;;;;;34.70;5.78;;;;;;;;;;5054396;28;20224;-65
2023/02/04 04:23:35;;;;;;;32.47;5.63;;;;;;;;;;5054261;28;20305;-66
2023/02/04 04:26:02;;;;;;;24.15;4.75;;;;;;;;;;5053964;28;20229;-64
2023/02/04 04:28:29;;;;;;;42.90;6.07;;;;;;;;;;5053861;28;20198;-64
2023/02/04 04:30:57;;;;;;;32.70;5.65;;;;;;;;;;5053693;28;20199;-64
2023/02/04 04:33:25;;;;;;;32.80;6.43;;;;;;;;;;5052409;28;20195;-65
2023/02/04 04:35:52;;;;;;;18.15;5.32;;;;;;;;;;5053672;28;20233;-64
2023/02/04 04:38:19;;;;;;;34.15;5.57;;;;;;;;;;5053122;28;20208;-64
2023/02/04 04:40:47;;;;;;;19.52;5.13;;;;;;;;;;5053655;28;20650;-65
2023/02/04 04:43:14;;;;;;;30.30;5.35;;;;;;;;;;5053538;28;20205;-64
2023/02/04 04:45:41;;;;;;;29.52;5.38;;;;;;;;;;5053700;28;20202;-64
2023/02/04 04:48:08;;;;;;;39.97;6.72;;;;;;;;;;5053811;28;20197;-64
2023/02/04 04:50:37;;;;;;;46.00;7.35;;;;;;;;;;5053419;28;20659;-64
2023/02/04 04:53:04;;;;;;;33.00;7.25;;;;;;;;;;5053714;28;20194;-63
2023/02/04 04:55:31;;;;;;;21.48;5.43;;;;;;;;;;5037587;28;20636;-64
2023/02/04 04:57:58;;;;;;;31.52;5.53;;;;;;;;;;5033784;28;20202;-64
2023/02/04 05:00:26;;;;;;;26.60;7.07;;;;;;;;;;5033512;28;20233;-64
2023/02/04 05:02:53;;;;;;;38.75;7.60;;;;;;;;;;5033384;28;20195;-64
2023/02/04 05:05:20;;;;;;;27.83;5.40;;;;;;;;;;5033558;28;20199;-64
2023/02/04 05:07:48;;;;;;;23.92;5.80;;;;;;;;;;5033295;28;20206;-63
2023/02/04 05:10:16;;;;;;;30.55;6.95;;;;;;;;;;5033544;28;20573;-64
2023/02/04 05:12:43;;;;;;;31.13;5.57;;;;;;;;;;5033558;28;20195;-64
2023/02/04 05:15:10;;;;;;;38.58;6.45;;;;;;;;;;5033531;28;20207;-64
2023/02/04 05:17:38;;;;;;;31.50;5.45;;;;;;;;;;5033523;28;20191;-64
2023/02/04 05:20:05;;;;;;;25.33;5.95;;;;;;;;;;5033292;28;20192;-64
2023/02/04 05:22:32;;;;;;;35.50;7.95;;;;;;;;;;5033276;28;20198;-64
2023/02/04 05:25:01;;;;;;;28.95;6.03;;;;;;;;;;5033186;28;20250;-65
2023/02/04 05:27:28;;;;;;;31.55;7.85;;;;;;;;;;5033427;28;20195;-63
2023/02/04 05:29:55;;;;;;;31.45;7.22;;;;;;;;;;5033190;28;20195;-64
2023/02/04 05:32:22;;;;;;;25.95;6.97;;;;;;;;;;5032827;28;20202;-63
2023/02/04 05:34:49;;;;;;;27.63;6.47;;;;;;;;;;5033175;28;20192;-63
2023/02/04 05:37:19;;;;;;;37.70;6.40;;;;;;;;;;5033066;28;20199;-63
2023/02/04 05:39:47;;;;;;;24.05;6.03;;;;;;;;;;5033022;28;20750;-64
2023/02/04 05:42:15;;;;;;;29.08;6.00;;;;;;;;;;5033368;28;20273;-64
2023/02/04 05:44:42;;;;;;;29.17;5.80;;;;;;;;;;5033146;28;20205;-64
2023/02/04 05:47:10;;;;;;;23.52;6.05;;;;;;;;;;5033635;28;20199;-63
2023/02/04 05:49:37;;;;;;;27.80;6.57;;;;;;;;;;5034736;28;20202;-63
2023/02/04 05:52:04;;;;;;;23.80;5.60;;;;;;;;;;5037392;28;20204;-63
2023/02/04 05:54:31;;;;;;;35.63;7.63;;;;;;;;;;5037141;28;20292;-63
2023/02/04 05:56:58;;;;;;;26.05;6.28;;;;;;;;;;5036654;28;20286;-63
2023/02/04 05:59:27;;;;;;;38.55;7.43;;;;;;;;;;5037077;28;20640;-63
2023/02/04 06:01:54;;;;;;;38.88;7.70;;;;;;;;;;5036573;28;20222;-63
2023/02/04 06:04:21;;;;;;;40.63;7.63;;;;;;;;;;5036923;28;20191;-63
2023/02/04 06:06:48;;;;;;;30.85;5.50;;;;;;;;;;5036904;28;20195;-63
2023/02/04 06:09:16;;;;;;;35.83;6.75;;;;;;;;;;5036542;28;20297;-63
2023/02/04 06:11:43;;;;;;;34.70;6.55;;;;;;;;;;5036722;28;20199;-63
2023/02/04 06:14:10;;;;;;;28.20;8.98;;;;;;;;;;5036883;28;20199;-63
2023/02/04 06:16:39;;;;;;;34.10;6.60;;;;;;;;;;5036652;28;20200;-63
2023/02/04 06:19:06;;;;;;;30.33;6.93;;;;;;;;;;5036577;28;20206;-64
2023/02/04 06:21:33;;;;;;;35.20;7.93;;;;;;;;;;5035964;28;20215;-63
2023/02/04 06:24:00;;;;;;;44.97;6.90;;;;;;;;;;5036716;28;20551;-64
2023/02/04 06:26:27;;;;;;;37.47;7.20;;;;;;;;;;5036140;28;20231;-64
2023/02/04 06:28:55;;;;;;;25.20;6.60;;;;;;;;;;5036340;28;20196;-65
2023/02/04 06:31:22;;;;;;;38.42;8.10;;;;;;;;;;5035977;28;20282;-63
2023/02/04 06:33:50;;;;;;;49.90;8.00;;;;;;;;;;5036386;28;20208;-63
2023/02/04 06:36:17;;;;;;;36.50;7.60;;;;;;;;;;5035918;28;20245;-63
2023/02/04 06:38:45;;;;;;;40.70;6.88;;;;;;;;;;5035930;28;20200;-63
2023/02/04 06:41:12;;;;;;;34.67;6.90;;;;;;;;;;5035892;28;20223;-64
2023/02/04 06:43:39;;;;;;;25.40;8.45;;;;;;;;;;5035753;28;20198;-64
2023/02/04 06:46:06;;;;;;;39.17;6.30;;;;;;;;;;5036194;28;20193;-64
2023/02/04 06:48:34;;;;;;;32.25;7.80;;;;;;;;;;5036133;28;20214;-64
2023/02/04 06:51:02;;;;;;;29.75;6.10;;;;;;;;;;5035586;28;20223;-64
2023/02/04 06:53:29;;;;;;;43.83;7.45;;;;;;;;;;5036055;28;20649;-64
2023/02/04 06:55:56;;;;;;;25.65;6.22;;;;;;;;;;5036042;28;20224;-64
2023/02/04 06:58:23;;;;;;;30.40;6.60;;;;;;;;;;5035933;28;20277;-63
2023/02/04 07:00:52;;;;;;;29.10;8.05;;;;;;;;;;5034655;28;20281;-63
2023/02/04 07:03:19;;;;;;;30.80;6.05;;;;;;;;;;5035432;28;20199;-63
2023/02/04 07:05:46;;;;;;;28.67;5.95;;;;;;;;;;5035496;28;20210;-63
2023/02/04 07:08:15;;;;;;;26.83;6.90;;;;;;;;;;5035358;28;20209;-63
2023/02/04 07:10:42;;;;;;;39.35;8.02;;;;;;;;;;5035704;28;20202;-64
2023/02/04 07:13:09;;;;;;;41.08;7.40;;;;;;;;;;5035660;28;20561;-64
2023/02/04 07:15:36;;;;;;;22.38;5.78;;;;;;;;;;5036047;28;20633;-64
2023/02/04 07:18:03;;;;;;;38.60;8.25;;;;;;;;;;5035472;28;20230;-63
2023/02/04 07:20:30;;;;;;;35.08;6.75;;;;;;;;;;5035946;28;20548;-64
2023/02/04 07:22:58;;;;;;;38.53;7.18;;;;;;;;;;5034911;28;20226;-63
2023/02/04 07:25:26;;;;;;;29.05;7.93;;;;;;;;;;5035124;28;20225;-64
2023/02/04 07:27:55;;;;;;;39.50;8.35;;;;;;;;;;5035595;28;20195;-64
2023/02/04 07:30:22;;;;;;;46.25;7.65;;;;;;;;;;5035411;28;20210;-63
2023/02/04 07:32:49;;;;;;;36.42;8.48;;;;;;;;;;5034601;28;20207;-64
2023/02/04 07:35:17;;;;;;;24.88;6.93;;;;;;;;;;5035267;28;20643;-65
2023/02/04 07:37:44;;;;;;;21.25;5.60;;;;;;;;;;5034632;28;20209;-63
2023/02/04 07:40:12;;;;;;;38.25;7.30;;;;;;;;;;5035109;28;20206;-64
2023/02/04 07:42:41;;;;;;;33.53;7.45;;;;;;;;;;5034446;28;20225;-64
2023/02/04 07:45:08;;;;;;;32.28;7.30;;;;;;;;;;5034999;28;20227;-63
2023/02/04 07:47:35;;;;;;;56.75;8.38;;;;;;;;;;5039704;28;20273;-63
2023/02/04 07:50:03;;;;;;;35.83;8.23;;;;;;;;;;5054752;28;20537;-63
2023/02/04 07:52:30;;;;;;;30.10;6.82;;;;;;;;;;5054684;28;20598;-63
2023/02/04 07:54:58;;;;;;;40.80;7.57;;;;;;;;;;5054331;28;20205;-64
2023/02/04 07:57:25;;;;;;;26.30;5.95;;;;;;;;;;5054593;28;20304;-64
2023/02/04 07:59:54;;;;;;;21.98;6.10;;;;;;;;;;5054734;28;20191;-63
2023/02/04 08:02:21;;;;;;;34.83;9.13;;;;;;;;;;5054508;28;20222;-63
2023/02/04 08:04:48;;;;;;;20.42;6.75;;;;;;;;;;5054530;28;20285;-63
2023/02/04 08:07:15;;;;;;;49.30;8.32;;;;;;;;;;5051919;28;20224;-63
2023/02/04 08:09:42;;;;;;;25.65;7.10;;;;;;;;;;5054427;28;20531;-63
2023/02/04 08:12:10;;;;;;;43.13;7.80;;;;;;;;;;5054053;28;20563;-63
2023/02/04 08:14:37;;;;;;;34.00;8.02;;;;;;;;;;5054317;28;20205;-64
2023/02/04 08:17:05;;;;;;;26.40;6.43;;;;;;;;;;5054367;28;20191;-64
2023/02/04 08:19:32;;;;;;;29.20;8.50;;;;;;;;;;5053974;28;20292;-63
2023/02/04 08:22:00;;;;;;;25.40;7.13;;;;;;;;;;5053793;28;20210;-63
2023/02/04 08:24:27;;;;;;;18.48;5.78;;;;;;;;;;5053537;28;20238;-64
2023/02/04 08:26:54;;;;;;;31.15;6.70;;;;;;;;;;5053577;28;20232;-64
2023/02/04 08:29:21;;;;;;;27.02;6.30;;;;;;;;;;5054035;28;20205;-63
2023/02/04 08:31:48;;;;;;;24.13;5.43;;;;;;;;;;5054066;28;20199;-63
2023/02/04 08:34:17;;;;;;;22.02;4.95;;;;;;;;;;5054004;28;20361;-63
2023/02/04 08:36:44;;;;;;;16.92;4.82;;;;;;;;;;5048796;28;20192;-63
2023/02/04 08:39:12;;;;;;;20.13;4.40;;;;;;;;;;5033927;28;20552;-64
2023/02/04 08:41:39;;;;;;;21.55;6.75;;;;;;;;;;5033927;28;20227;-63
2023/02/04 08:44:06;;;;;;;15.88;4.50;;;;;;;;;;5033597;28;20206;-63
2023/02/04 08:46:33;;;;;;;11.02;3.70;;;;;;;;;;5033493;28;20648;-64
2023/02/04 08:49:00;;;;;;;15.07;4.15;;;;;;;;;;5033612;28;20534;-63
2023/02/04 08:51:29;;;;;;;12.30;4.38;;;;;;;;;;5033907;28;20564;-63
2023/02/04 08:53:56;;;;;;;13.43;5.00;;;;;;;;;;5033329;28;20207;-64
2023/02/04 08:56:24;;;;;;;10.55;3.88;;;;;;;;;;5033502;28;20662;-63
2023/02/04 08:58:51;;;;;;;9.95;3.72;;;;;;;;;;5033125;28;20290;-64
2023/02/04 09:01:19;;;;;;;12.00;5.22;;;;;;;;;;5033552;28;20199;-64
2023/02/04 09:03:46;;;;;;;12.63;4.32;;;;;;;;;;5033876;28;20191;-63
2023/02/04 09:06:13;;;;;;;7.20;3.20;;;;;;;;;;5033269;28;20611;-64
2023/02/04 09:08:42;;;;;;;11.68;3.95;;;;;;;;;;5033243;28;20203;-64
2023/02/04 09:11:11;;;;;;;4.90;2.80;;;;;;;;;;5034123;28;20202;-63
2023/02/04 09:13:38;;;;;;;12.07;3.00;;;;;;;;;;5033846;28;20266;-63
2023/02/04 09:16:05;;;;;;;6.35;2.90;;;;;;;;;;5033461;28;20202;-63
2023/02/04 09:18:33;;;;;;;9.57;2.70;;;;;;;;;;5033432;28;20191;-63
2023/02/04 09:21:00;;;;;;;6.60;2.75;;;;;;;;;;5033311;28;20288;-64
2023/02/04 09:23:28;;;;;;;7.03;3.13;;;;;;;;;;5032733;28;20225;-63
2023/02/04 09:25:57;;;;;;;9.65;3.50;;;;;;;;;;5033223;28;20626;-63
2023/02/04 09:28:24;;;;;;;9.30;3.45;;;;;;;;;;5033074;28;20209;-63
2023/02/04 09:30:51;;;;;;;5.30;2.95;;;;;;;;;;5033290;28;20201;-64
2023/02/04 09:33:19;;;;;;;7.65;2.85;;;;;;;;;;5033137;28;20203;-64
2023/02/04 09:35:46;;;;;;;15.35;3.80;;;;;;;;;;5033268;28;20196;-63
2023/02/04 09:38:13;;;;;;;8.30;4.15;;;;;;;;;;5032688;28;20668;-63
2023/02/04 09:40:42;;;;;;;8.68;4.95;;;;;;;;;;5033028;28;20552;-64
2023/02/04 09:43:13;;;;;;;9.55;2.90;;;;;;;;;;5033196;28;20302;-63
2023/02/04 09:45:40;;;;;;;12.80;3.20;;;;;;;;;;5033156;28;20214;-63
2023/02/04 09:48:08;;;;;;;6.80;3.55;;;;;;;;;;5032666;28;20199;-64
2023/02/04 09:50:35;;;;;;;7.47;2.97;;;;;;;;;;5033063;28;20191;-63
2023/02/04 09:53:04;;;;;;;8.57;3.40;;;;;;;;;;5032799;28;20664;-64
2023/02/04 09:55:35;;;;;;;12.05;3.38;;;;;;;;;;5033225;28;20225;-63
2023/02/04 09:58:02;;;;;;;6.55;3.30;;;;;;;;;;5033524;28;20283;-63
2023/02/04 10:00:31;;;;;;;6.30;2.90;;;;;;;;;;5032641;28;20210;-64
2023/02/04 10:02:59;;;;;;;14.57;3.60;;;;;;;;;;5032528;28;20218;-64
2023/02/04 10:05:28;;;;;;;5.50;2.90;;;;;;;;;;5032919;28;20535;-63
2023/02/04 10:07:56;;;;;;;12.98;3.40;;;;;;;;;;5032469;28;20196;-64
2023/02/04 10:10:26;;;;;;;8.03;3.67;;;;;;;;;;5032930;28;20207;-63
2023/02/04 10:12:54;;;;;;;14.18;4.65;;;;;;;;;;5033204;28;20511;-63
2023/02/04 10:15:21;;;;;;;9.73;3.30;;;;;;;;;;5032797;28;20244;-63
2023/02/04 10:17:52;;;;;;;10.07;2.77;;;;;;;;;;5032818;28;20446;-63
2023/02/04 10:20:20;;;;;;;12.10;3.10;;;;;;;;;;5032693;28;20903;-63
2023/02/04 10:22:47;;;;;;;5.78;2.90;;;;;;;;;;5031348;28;20485;-64
2023/02/04 10:25:15;;;;;;;9.10;4.07;;;;;;;;;;5018402;28;20263;-64
2023/02/04 10:27:49;;;;;;;13.30;4.00;;;;;;;;;;5012893;28;20443;-63
2023/02/04 10:30:20;;;;;;;8.57;3.95;;;;;;;;;;5012632;28;20439;-63
2023/02/04 10:32:48;;;;;;;12.25;3.80;;;;;;;;;;5012532;28;20673;-64
2023/02/04 10:35:17;;;;;;;21.80;5.53;;;;;;;;;;5012567;28;20204;-64
2023/02/04 10:37:45;;;;;;;17.63;4.22;;;;;;;;;;5015705;28;20284;-63
2023/02/04 10:40:28;;;;;;;8.93;3.97;;;;;;;;;;5023378;28;20196;-64
2023/02/04 10:42:55;;;;;;;11.05;4.32;;;;;;;;;;5035007;28;20571;-64
2023/02/04 10:45:23;;;;;;;11.93;4.35;;;;;;;;;;5035318;28;20279;-64
2023/02/04 10:47:51;;;;;;;10.27;5.22;;;;;;;;;;5035529;28;20196;-63
2023/02/04 10:50:21;;;;;;;12.95;4.60;;;;;;;;;;5035847;28;20199;-64
2023/02/04 10:52:50;;;;;;;19.35;6.22;;;;;;;;;;5036141;28;20199;-64
2023/02/04 10:55:18;;;;;;;8.52;4.00;;;;;;;;;;5035481;28;20203;-63
2023/02/04 10:57:47;;;;;;;24.38;14.55;;;;;;;;;;5035850;28;20192;-63
2023/02/04 11:00:16;;;;;;;12.05;7.72;;;;;;;;;;5035897;28;20196;-64
2023/02/04 11:02:45;;;;;;;15.77;6.10;;;;;;;;;;5035430;28;20230;-64
2023/02/04 11:05:13;;;;;;;12.93;4.77;;;;;;;;;;5035115;28;20923;-63
2023/02/04 11:07:42;;;;;;;12.90;5.30;;;;;;;;;;5035393;28;21092;-64
2023/02/04 11:10:13;;;;;;;9.50;5.13;;;;;;;;;;5035437;28;20454;-63
2023/02/04 11:12:42;;;;;;;15.40;5.83;;;;;;;;;;5035792;28;20527;-64
2023/02/04 11:15:24;;;;;;;12.80;4.77;;;;;;;;;;5034979;28;20442;-64
2023/02/04 11:17:59;;;;;;;12.57;5.13;;;;;;;;;;5034577;28;20919;-64
2023/02/04 11:20:31;;;;;;;17.20;6.27;;;;;;;;;;5035100;28;20426;-66
2023/02/04 11:23:14;;;;;;;19.00;6.33;;;;;;;;;;5034971;28;20497;-64
2023/02/04 11:25:41;;;;;;;10.67;4.90;;;;;;;;;;5048191;28;20552;-64
2023/02/04 11:28:14;;;;;;;11.05;4.65;;;;;;;;;;5054663;28;20442;-65
2023/02/04 11:30:41;;;;;;;15.23;5.30;;;;;;;;;;5055302;28;20191;-64
2023/02/04 11:33:22;;;;;;;14.20;5.10;;;;;;;;;;5054440;28;20449;-69
2023/02/04 11:36:01;;;;;;;12.00;4.60;;;;;;;;;;5055629;28;20433;-66
2023/02/04 11:38:31;;;;;;;14.43;4.80;;;;;;;;;;5055237;28;20964;-66
2023/02/04 11:40:58;;;;;;;11.73;5.07;;;;;;;;;;5054914;28;20203;-66
2023/02/04 11:43:26;;;;;;;15.43;5.00;;;;;;;;;;5054948;28;20477;-66
2023/02/04 11:46:01;;;;;;;9.32;4.60;;;;;;;;;;5053296;28;20442;-66
2023/02/04 11:48:28;;;;;;;11.80;4.60;;;;;;;;;;5054302;28;20193;-66
2023/02/04 11:50:56;;;;;;;14.33;4.77;;;;;;;;;;5054304;28;20437;-66
2023/02/04 11:53:25;;;;;;;26.27;5.43;;;;;;;;;;5054781;28;20449;-66
2023/02/04 11:55:53;;;;;;;17.33;5.47;;;;;;;;;;5054488;28;20460;-66
2023/02/04 11:58:24;;;;;;;11.40;5.27;;;;;;;;;;5054615;28;20443;-66
2023/02/04 12:00:52;;;;;;;9.87;4.20;;;;;;;;;;5054105;28;20866;-66
2023/02/04 12:03:27;;;;;;;8.93;4.13;;;;;;;;;;5054785;28;20573;-66
2023/02/04 12:05:55;;;;;;;14.43;4.43;;;;;;;;;;5054434;28;20506;-66
2023/02/04 12:08:31;;;;;;;14.85;6.18;;;;;;;;;;5054015;28;20507;-67
2023/02/04 12:11:06;;;;;;;12.95;5.28;;;;;;;;;;5053936;28;20213;-67
2023/02/04 12:13:33;;;;;;;14.77;5.40;;;;;;;;;;5054172;28;20717;-67
2023/02/04 12:16:01;;;;;;;12.55;5.70;;;;;;;;;;5054080;28;20532;-67
2023/02/04 12:18:29;;;;;;;12.80;5.00;;;;;;;;;;5053966;28;20191;-66
2023/02/04 12:20:56;;;;;;;9.52;4.30;;;;;;;;;;5053796;28;20442;-67
2023/02/04 12:23:24;;;;;;;13.23;4.50;;;;;;;;;;5053834;28;20214;-66
2023/02/04 12:25:51;;;;;;;14.17;5.73;;;;;;;;;;5053694;28;20473;-67
2023/02/04 12:28:20;;;;;;;19.05;4.60;;;;;;;;;;5053972;28;20551;-67
2023/02/04 12:30:47;;;;;;;13.43;6.83;;;;;;;;;;5053997;28;20199;-66
2023/02/04 12:33:14;;;;;;;12.07;4.63;;;;;;;;;;5054034;28;20442;-66
2023/02/04 12:35:42;;;;;;;15.82;8.43;;;;;;;;;;5053868;28;20824;-66
2023/02/04 12:38:09;;;;;;;14.83;5.33;;;;;;;;;;5053507;28;20199;-66
2023/02/04 12:40:36;;;;;;;14.00;4.88;;;;;;;;;;5054033;28;21017;-66
2023/02/04 12:43:04;;;;;;;16.03;3.80;;;;;;;;;;5053122;28;20229;-66
2023/02/04 12:45:33;;;;;;;13.90;5.07;;;;;;;;;;5053261;28;20532;-66
2023/02/04 12:48:00;;;;;;;20.13;6.80;;;;;;;;;;5053345;28;20433;-66
2023/02/04 12:50:27;;;;;;;8.10;3.77;;;;;;;;;;5053229;28;20449;-66
2023/02/04 12:52:55;;;;;;;12.50;4.65;;;;;;;;;;5053191;28;20450;-66
2023/02/04 12:55:23;;;;;;;11.20;4.85;;;;;;;;;;5053290;28;20205;-66
2023/02/04 12:57:50;;;;;;;13.63;4.83;;;;;;;;;;5053572;28;20190;-66
2023/02/04 13:00:19;;;;;;;9.25;4.47;;;;;;;;;;5052511;28;20973;-66
2023/02/04 13:02:47;;;;;;;10.75;4.85;;;;;;;;;;5053376;28;20577;-67
2023/02/04 13:05:15;;;;;;;9.40;4.17;;;;;;;;;;5053134;28;20286;-66
2023/02/04 13:07:42;;;;;;;13.03;5.10;;;;;;;;;;5053009;28;20528;-66
2023/02/04 13:10:10;;;;;;;10.70;4.32;;;;;;;;;;5053183;28;20521;-66
2023/02/04 13:12:37;;;;;;;9.00;4.10;;;;;;;;;;5053387;28;20197;-66
2023/02/04 13:15:04;;;;;;;11.53;4.23;;;;;;;;;;5053038;28;20650;-66
2023/02/04 13:17:32;;;;;;;13.07;3.73;;;;;;;;;;5053586;28;20445;-66
2023/02/04 13:20:01;;;;;;;14.43;5.80;;;;;;;;;;5053238;28;20503;-66
2023/02/04 13:22:28;;;;;;;9.50;3.95;;;;;;;;;;5053322;28;20445;-66
2023/02/04 13:24:55;;;;;;;7.85;3.53;;;;;;;;;;5052935;28;20245;-66
2023/02/04 13:27:22;;;;;;;14.07;4.25;;;;;;;;;;5053126;28;20201;-66
2023/02/04 13:29:50;;;;;;;9.68;3.90;;;;;;;;;;5053046;28;20198;-66
2023/02/04 13:32:17;;;;;;;12.73;4.30;;;;;;;;;;5053033;28;20202;-67
2023/02/04 13:34:44;;;;;;;11.93;4.20;;;;;;;;;;5053137;28;20209;-67
2023/02/04 13:37:13;;;;;;;6.35;3.40;;;;;;;;;;5053012;28;20480;-66
2023/02/04 13:39:40;;;;;;;8.23;3.63;;;;;;;;;;5052774;28;20210;-67
2023/02/04 13:42:07;;;;;;;14.90;7.77;;;;;;;;;;5053102;28;20463;-67
2023/02/04 13:44:34;;;;;;;6.25;3.90;;;;;;;;;;5052097;28;20488;-67
2023/02/04 13:47:01;;;;;;;13.87;3.40;;;;;;;;;;5053011;28;20195;-67
2023/02/04 13:49:28;;;;;;;15.17;4.37;;;;;;;;;;5052676;28;20454;-67
2023/02/04 13:51:56;;;;;;;6.53;3.85;;;;;;;;;;5052645;28;20441;-68
2023/02/04 13:54:24;;;;;;;9.50;4.03;;;;;;;;;;5052774;28;20671;-67
2023/02/04 13:56:52;;;;;;;12.93;6.17;;;;;;;;;;5053126;28;20884;-67
2023/02/04 13:59:19;;;;;;;8.40;4.40;;;;;;;;;;5052869;28;20544;-67
2023/02/04 14:01:46;;;;;;;13.02;5.78;;;;;;;;;;5052888;28;20445;-67
2023/02/04 14:04:14;;;;;;;8.07;3.80;;;;;;;;;;5052511;28;20219;-67
2023/02/04 14:06:42;;;;;;;12.53;4.43;;;;;;;;;;5053030;28;20194;-67
2023/02/04 14:09:10;;;;;;;10.10;4.70;;;;;;;;;;5052150;28;20453;-68
2023/02/04 14:11:39;;;;;;;14.33;5.27;;;;;;;;;;5055821;28;20651;-67
2023/02/04 14:14:07;;;;;;;7.00;4.35;;;;;;;;;;5056331;28;20514;-67
2023/02/04 14:16:34;;;;;;;13.97;3.23;;;;;;;;;;5052261;28;20199;-67
2023/02/04 14:19:01;;;;;;;11.67;4.17;;;;;;;;;;5055887;28;20533;-67
2023/02/04 14:21:29;;;;;;;10.32;4.47;;;;;;;;;;5055782;28;20451;-67
2023/02/04 14:23:56;;;;;;;11.40;4.20;;;;;;;;;;5055836;28;20590;-67
2023/02/04 14:26:23;;;;;;;10.13;4.22;;;;;;;;;;5056183;28;20230;-67
2023/02/04 14:28:51;;;;;;;14.50;4.80;;;;;;;;;;5056037;28;20245;-67
2023/02/04 14:31:19;;;;;;;11.40;5.40;;;;;;;;;;5055859;28;20441;-67
2023/02/04 14:33:46;;;;;;;10.83;4.27;;;;;;;;;;5055870;28;20447;-67
2023/02/04 14:36:13;;;;;;;11.80;6.35;;;;;;;;;;5055831;28;20452;-67
2023/02/04 14:38:40;;;;;;;9.83;3.73;;;;;;;;;;5055521;28;20669;-66
2023/02/04 14:41:08;;;;;;;15.25;4.10;;;;;;;;;;5055818;28;20934;-67
2023/02/04 14:43:36;;;;;;;7.60;3.58;;;;;;;;;;5055932;28;20687;-67